sensor_id;sensor_type;location;lat;lon;timestamp;pressure;altitude;pressure_sealevel;temperature;humidity
26043;BME280;13818;52.156;5.382;2023-09-18T00:01:38;100447.50;;;18.49;100.00
26043;BME280;13818;52.156;5.382;2023-09-18T00:04:06;100440.69;;;18.45;100.00
26043;BME280;13818;52.156;5.382;2023-09-18T00:06:41;100444.81;;;18.49;100.00
26043;BME280;13818;52.156;5.382;2023-09-18T00:09:11;100430.59;;;18.47;100.00
26043;BME280;13818;52.156;5.382;2023-09-18T00:11:39;100419.78;;;18.47;100.00
26043;BME280;13818;52.156;5.382;2023-09-18T00:14:08;100413.81;;;18.43;100.00
26043;BME280;13818;52.156;5.382;2023-09-18T00:16:37;100409.13;;;18.45;100.00
26043;BME280;13818;52.156;5.382;2023-09-18T00:19:09;100399.31;;;18.44;100.00
26043;BME280;13818;52.156;5.382;2023-09-18T00:21:36;100392.34;;;18.42;100.00
26043;BME280;13818;52.156;5.382;2023-09-18T00:24:04;100383.66;;;18.38;100.00
26043;BME280;13818;52.156;5.382;2023-09-18T00:26:33;100383.41;;;18.41;100.00
26043;BME280;13818;52.156;5.382;2023-09-18T00:29:01;100378.88;;;18.42;100.00
26043;BME280;13818;52.156;5.382;2023-09-18T00:31:28;100377.88;;;18.43;100.00
26043;BME280;13818;52.156;5.382;2023-09-18T00:33:57;100366.34;;;18.41;100.00
26043;BME280;13818;52.156;5.382;2023-09-18T00:36:24;100364.53;;;18.41;100.00
26043;BME280;13818;52.156;5.382;2023-09-18T00:38:57;100354.59;;;18.42;100.00
26043;BME280;13818;52.156;5.382;2023-09-18T00:41:33;100352.63;;;18.44;100.00
26043;BME280;13818;52.156;5.382;2023-09-18T00:44:01;100353.47;;;18.44;100.00
26043;BME280;13818;52.156;5.382;2023-09-18T00:46:28;100361.16;;;18.49;100.00
26043;BME280;13818;52.156;5.382;2023-09-18T00:48:57;100358.47;;;18.49;100.00
26043;BME280;13818;52.156;5.382;2023-09-18T00:51:28;100349.38;;;18.50;100.00
26043;BME280;13818;52.156;5.382;2023-09-18T00:53:57;100331.63;;;18.47;100.00
26043;BME280;13818;52.156;5.382;2023-09-18T00:56:29;100319.97;;;18.47;100.00
26043;BME280;13818;52.156;5.382;2023-09-18T00:58:59;100317.16;;;18.48;100.00
26043;BME280;13818;52.156;5.382;2023-09-18T01:01:30;100318.00;;;18.49;100.00
26043;BME280;13818;52.156;5.382;2023-09-18T01:04:00;100309.06;;;18.48;100.00
26043;BME280;13818;52.156;5.382;2023-09-18T01:06:31;100309.75;;;18.50;100.00
26043;BME280;13818;52.156;5.382;2023-09-18T01:09:00;100301.50;;;18.52;100.00
26043;BME280;13818;52.156;5.382;2023-09-18T01:11:42;100287.75;;;18.55;100.00
26043;BME280;13818;52.156;5.382;2023-09-18T01:14:19;100282.38;;;18.55;100.00
26043;BME280;13818;52.156;5.382;2023-09-18T01:16:53;100284.34;;;18.53;100.00
26043;BME280;13818;52.156;5.382;2023-09-18T01:19:38;100272.84;;;18.51;100.00
26043;BME280;13818;52.156;5.382;2023-09-18T01:22:07;100268.72;;;18.57;100.00
26043;BME280;13818;52.156;5.382;2023-09-18T01:24:39;100262.06;;;18.51;100.00
26043;BME280;13818;52.156;5.382;2023-09-18T01:27:09;100258.47;;;18.50;100.00
26043;BME280;13818;52.156;5.382;2023-09-18T01:29:45;100258.47;;;18.50;100.00
26043;BME280;13818;52.156;5.382;2023-09-18T01:32:12;100242.44;;;18.49;100.00
26043;BME280;13818;52.156;5.382;2023-09-18T01:34:46;100226.09;;;18.50;100.00
26043;BME280;13818;52.156;5.382;2023-09-18T01:37:20;100228.81;;;18.50;100.00
26043;BME280;13818;52.156;5.382;2023-09-18T01:39:51;100218.00;;;18.50;100.00
26043;BME280;13818;52.156;5.382;2023-09-18T01:42:22;100221.69;;;18.49;100.00
26043;BME280;13818;52.156;5.382;2023-09-18T01:44:54;100231.34;;;18.52;100.00
26043;BME280;13818;52.156;5.382;2023-09-18T01:47:22;100229.53;;;18.52;100.00
26043;BME280;13818;52.156;5.382;2023-09-18T01:49:57;100226.84;;;18.52;100.00
26043;BME280;13818;52.156;5.382;2023-09-18T01:52:24;100222.84;;;18.57;100.00
26043;BME280;13818;52.156;5.382;2023-09-18T01:54:52;100215.75;;;18.56;100.00
26043;BME280;13818;52.156;5.382;2023-09-18T01:57:21;100216.19;;;18.61;100.00
26043;BME280;13818;52.156;5.382;2023-09-18T01:59:49;100227.28;;;18.58;100.00
26043;BME280;13818;52.156;5.382;2023-09-18T02:02:25;100224.00;;;18.54;100.00
26043;BME280;13818;52.156;5.382;2023-09-18T02:04:52;100224.00;;;18.54;100.00
26043;BME280;13818;52.156;5.382;2023-09-18T02:07:20;100217.31;;;18.48;100.00
26043;BME280;13818;52.156;5.382;2023-09-18T02:09:58;100227.78;;;18.42;100.00
26043;BME280;13818;52.156;5.382;2023-09-18T02:12:32;100230.75;;;18.38;100.00
26043;BME280;13818;52.156;5.382;2023-09-18T02:15:03;100231.16;;;18.34;100.00
26043;BME280;13818;52.156;5.382;2023-09-18T02:17:35;100226.63;;;18.34;100.00
26043;BME280;13818;52.156;5.382;2023-09-18T02:20:04;100233.88;;;18.34;100.00
26043;BME280;13818;52.156;5.382;2023-09-18T02:22:37;100230.44;;;18.32;100.00
26043;BME280;13818;52.156;5.382;2023-09-18T02:25:14;100230.56;;;18.30;100.00
26043;BME280;13818;52.156;5.382;2023-09-18T02:27:43;100235.28;;;18.28;100.00
26043;BME280;13818;52.156;5.382;2023-09-18T02:30:14;100226.59;;;18.25;100.00
26043;BME280;13818;52.156;5.382;2023-09-18T02:32:42;100220.47;;;18.23;100.00
26043;BME280;13818;52.156;5.382;2023-09-18T02:35:11;100205.16;;;18.23;100.00
26043;BME280;13818;52.156;5.382;2023-09-18T02:37:46;100196.78;;;18.26;100.00
26043;BME280;13818;52.156;5.382;2023-09-18T02:40:15;100193.69;;;18.31;100.00
26043;BME280;13818;52.156;5.382;2023-09-18T02:42:46;100181.78;;;18.33;100.00
26043;BME280;13818;52.156;5.382;2023-09-18T02:45:15;100179.06;;;18.33;100.00
26043;BME280;13818;52.156;5.382;2023-09-18T02:47:45;100170.09;;;18.33;100.00
26043;BME280;13818;52.156;5.382;2023-09-18T02:50:15;100172.53;;;18.36;100.00
26043;BME280;13818;52.156;5.382;2023-09-18T02:52:42;100168.97;;;18.35;100.00
26043;BME280;13818;52.156;5.382;2023-09-18T02:55:09;100163.31;;;18.38;100.00
26043;BME280;13818;52.156;5.382;2023-09-18T02:57:38;100158.06;;;18.47;100.00
26043;BME280;13818;52.156;5.382;2023-09-18T03:00:09;100163.34;;;18.48;100.00
26043;BME280;13818;52.156;5.382;2023-09-18T03:02:36;100139.91;;;18.49;100.00
26043;BME280;13818;52.156;5.382;2023-09-18T03:05:07;100126.41;;;18.49;100.00
26043;BME280;13818;52.156;5.382;2023-09-18T03:07:34;100122.16;;;18.46;100.00
26043;BME280;13818;52.156;5.382;2023-09-18T03:10:02;100117.59;;;18.47;100.00
26043;BME280;13818;52.156;5.382;2023-09-18T03:12:30;100100.97;;;18.42;100.00
26043;BME280;13818;52.156;5.382;2023-09-18T03:14:59;100094.59;;;18.43;100.00
26043;BME280;13818;52.156;5.382;2023-09-18T03:17:26;100095.59;;;18.42;100.00
26043;BME280;13818;52.156;5.382;2023-09-18T03:19:59;100091.31;;;18.39;100.00
26043;BME280;13818;52.156;5.382;2023-09-18T03:22:26;100091.31;;;18.39;100.00
26043;BME280;13818;52.156;5.382;2023-09-18T03:24:55;100095.00;;;18.38;100.00
26043;BME280;13818;52.156;5.382;2023-09-18T03:27:22;100092.19;;;18.40;100.00
26043;BME280;13818;52.156;5.382;2023-09-18T03:29:54;100089.63;;;18.38;100.00
26043;BME280;13818;52.156;5.382;2023-09-18T03:32:24;100091.06;;;18.42;100.00
26043;BME280;13818;52.156;5.382;2023-09-18T03:34:52;100083.38;;;18.37;100.00
26043;BME280;13818;52.156;5.382;2023-09-18T03:37:24;100081.66;;;18.36;100.00
26043;BME280;13818;52.156;5.382;2023-09-18T03:39:52;100092.31;;;18.38;100.00
26043;BME280;13818;52.156;5.382;2023-09-18T03:42:20;100088.63;;;18.39;100.00
26043;BME280;13818;52.156;5.382;2023-09-18T03:44:47;100094.03;;;18.39;100.00
26043;BME280;13818;52.156;5.382;2023-09-18T03:47:15;100103.09;;;18.38;100.00
26043;BME280;13818;52.156;5.382;2023-09-18T03:49:47;100100.28;;;18.40;100.00
26043;BME280;13818;52.156;5.382;2023-09-18T03:52:14;100105.69;;;18.40;100.00
26043;BME280;13818;52.156;5.382;2023-09-18T03:54:41;100118.03;;;18.42;100.00
26043;BME280;13818;52.156;5.382;2023-09-18T03:57:08;100100.28;;;18.40;100.00
26043;BME280;13818;52.156;5.382;2023-09-18T03:59:38;100089.63;;;18.48;100.00
26043;BME280;13818;52.156;5.382;2023-09-18T04:02:08;100089.78;;;18.56;100.00
26043;BME280;13818;52.156;5.382;2023-09-18T04:04:37;100076.72;;;18.61;100.00
26043;BME280;13818;52.156;5.382;2023-09-18T04:07:07;100059.97;;;18.58;100.00
26043;BME280;13818;52.156;5.382;2023-09-18T04:09:35;100065.66;;;18.54;100.00
26043;BME280;13818;52.156;5.382;2023-09-18T04:12:03;100062.25;;;18.62;100.00
26043;BME280;13818;52.156;5.382;2023-09-18T04:14:36;100064.22;;;18.70;100.00
26043;BME280;13818;52.156;5.382;2023-09-18T04:17:06;100063.78;;;18.75;100.00
26043;BME280;13818;52.156;5.382;2023-09-18T04:19:41;100060.50;;;18.81;100.00
26043;BME280;13818;52.156;5.382;2023-09-18T04:22:13;100052.16;;;18.94;100.00
26043;BME280;13818;52.156;5.382;2023-09-18T04:24:41;100052.69;;;18.97;100.00
26043;BME280;13818;52.156;5.382;2023-09-18T04:27:12;100037.53;;;18.96;100.00
26043;BME280;13818;52.156;5.382;2023-09-18T04:29:40;100024.72;;;18.98;100.00
26043;BME280;13818;52.156;5.382;2023-09-18T04:32:06;100023.13;;;19.06;100.00
26043;BME280;13818;52.156;5.382;2023-09-18T04:34:33;100026.63;;;19.26;100.00
26043;BME280;13818;52.156;5.382;2023-09-18T04:37:00;100018.50;;;19.35;100.00
26043;BME280;13818;52.156;5.382;2023-09-18T04:39:28;100014.31;;;19.51;100.00
26043;BME280;13818;52.156;5.382;2023-09-18T04:41:55;100016.41;;;19.57;100.00
26043;BME280;13818;52.156;5.382;2023-09-18T04:44:21;100020.22;;;19.64;100.00
26043;BME280;13818;52.156;5.382;2023-09-18T04:46:48;100016.81;;;19.62;100.00
26043;BME280;13818;52.156;5.382;2023-09-18T04:49:14;100005.88;;;19.54;100.00
26043;BME280;13818;52.156;5.382;2023-09-18T04:51:41;100001.50;;;19.53;100.00
26043;BME280;13818;52.156;5.382;2023-09-18T04:54:07;99999.75;;;19.62;100.00
26043;BME280;13818;52.156;5.382;2023-09-18T04:56:35;99996.75;;;19.65;100.00
26043;BME280;13818;52.156;5.382;2023-09-18T04:59:02;99992.94;;;19.58;100.00
26043;BME280;13818;52.156;5.382;2023-09-18T05:01:29;100006.19;;;19.51;100.00
26043;BME280;13818;52.156;5.382;2023-09-18T05:03:55;100041.50;;;19.40;100.00
26043;BME280;13818;52.156;5.382;2023-09-18T05:06:22;100045.22;;;19.39;100.00
26043;BME280;13818;52.156;5.382;2023-09-18T05:08:49;100036.88;;;19.22;100.00
26043;BME280;13818;52.156;5.382;2023-09-18T05:11:17;100047.84;;;19.11;100.00
26043;BME280;13818;52.156;5.382;2023-09-18T05:13:45;100059.41;;;18.93;100.00
26043;BME280;13818;52.156;5.382;2023-09-18T05:16:12;100046.19;;;18.90;100.00
26043;BME280;13818;52.156;5.382;2023-09-18T05:18:38;100029.84;;;18.92;100.00
26043;BME280;13818;52.156;5.382;2023-09-18T05:21:06;100034.50;;;18.90;100.00
26043;BME280;13818;52.156;5.382;2023-09-18T05:23:34;100028.53;;;18.86;100.00
26043;BME280;13818;52.156;5.382;2023-09-18T05:26:01;100028.41;;;18.78;100.00
26043;BME280;13818;52.156;5.382;2023-09-18T05:28:28;100026.72;;;18.77;100.00
26043;BME280;13818;52.156;5.382;2023-09-18T05:30:56;100042.06;;;18.76;100.00
26043;BME280;13818;52.156;5.382;2023-09-18T05:33:22;100037.34;;;18.78;100.00
26043;BME280;13818;52.156;5.382;2023-09-18T05:35:49;100050.84;;;18.78;100.00
26043;BME280;13818;52.156;5.382;2023-09-18T05:38:16;100048.28;;;18.86;100.00
26043;BME280;13818;52.156;5.382;2023-09-18T05:40:43;100049.16;;;18.97;100.00
26043;BME280;13818;52.156;5.382;2023-09-18T05:43:10;100048.88;;;19.00;100.00
26043;BME280;13818;52.156;5.382;2023-09-18T05:45:37;100052.53;;;19.09;100.00
26043;BME280;13818;52.156;5.382;2023-09-18T05:48:05;100047.69;;;19.12;100.00
26043;BME280;13818;52.156;5.382;2023-09-18T05:50:33;100055.63;;;19.24;100.00
26043;BME280;13818;52.156;5.382;2023-09-18T05:53:00;100062.75;;;19.25;100.00
26043;BME280;13818;52.156;5.382;2023-09-18T05:55:29;100059.19;;;19.24;100.00
26043;BME280;13818;52.156;5.382;2023-09-18T05:57:56;100054.06;;;19.21;100.00
26043;BME280;13818;52.156;5.382;2023-09-18T06:00:23;100052.34;;;19.30;100.00
26043;BME280;13818;52.156;5.382;2023-09-18T06:02:49;100036.84;;;19.32;100.00
26043;BME280;13818;52.156;5.382;2023-09-18T06:05:18;100043.41;;;19.29;100.00
26043;BME280;13818;52.156;5.382;2023-09-18T06:07:47;100043.44;;;19.19;100.00
26043;BME280;13818;52.156;5.382;2023-09-18T06:10:13;100046.56;;;19.15;100.00
26043;BME280;13818;52.156;5.382;2023-09-18T06:12:40;100036.78;;;19.04;100.00
26043;BME280;13818;52.156;5.382;2023-09-18T06:15:07;100039.19;;;18.97;100.00
26043;BME280;13818;52.156;5.382;2023-09-18T06:17:35;100050.31;;;18.94;100.00
26043;BME280;13818;52.156;5.382;2023-09-18T06:20:02;100053.69;;;19.06;100.00
26043;BME280;13818;52.156;5.382;2023-09-18T06:22:31;100065.47;;;19.15;100.00
26043;BME280;13818;52.156;5.382;2023-09-18T06:24:58;100048.97;;;19.18;100.00
26043;BME280;13818;52.156;5.382;2023-09-18T06:27:24;100047.13;;;19.18;100.00
26043;BME280;13818;52.156;5.382;2023-09-18T06:29:51;100054.63;;;19.25;100.00
26043;BME280;13818;52.156;5.382;2023-09-18T06:32:17;100052.50;;;19.28;100.00
26043;BME280;13818;52.156;5.382;2023-09-18T06:34:43;100050.09;;;19.25;100.00
26043;BME280;13818;52.156;5.382;2023-09-18T06:37:10;100058.31;;;19.33;100.00
26043;BME280;13818;52.156;5.382;2023-09-18T06:39:39;100047.63;;;19.42;100.00
26043;BME280;13818;52.156;5.382;2023-09-18T06:42:06;100052.72;;;19.45;100.00
26043;BME280;13818;52.156;5.382;2023-09-18T06:44:32;100055.41;;;19.55;100.00
26043;BME280;13818;52.156;5.382;2023-09-18T06:46:59;100046.16;;;19.57;100.00
26043;BME280;13818;52.156;5.382;2023-09-18T06:49:25;100049.41;;;19.61;100.00
26043;BME280;13818;52.156;5.382;2023-09-18T06:51:52;100053.94;;;19.60;100.00
26043;BME280;13818;52.156;5.382;2023-09-18T06:54:19;100061.53;;;19.57;100.00
26043;BME280;13818;52.156;5.382;2023-09-18T06:56:46;100055.50;;;19.63;100.00
26043;BME280;13818;52.156;5.382;2023-09-18T06:59:13;100059.34;;;19.60;100.00
26043;BME280;13818;52.156;5.382;2023-09-18T07:01:39;100056.75;;;19.68;100.00
26043;BME280;13818;52.156;5.382;2023-09-18T07:04:06;100059.72;;;19.75;100.00
26043;BME280;13818;52.156;5.382;2023-09-18T07:06:32;100060.41;;;19.87;100.00
26043;BME280;13818;52.156;5.382;2023-09-18T07:08:59;100068.91;;;19.92;100.00
26043;BME280;13818;52.156;5.382;2023-09-18T07:11:25;100069.00;;;20.00;100.00
26043;BME280;13818;52.156;5.382;2023-09-18T07:13:53;100062.78;;;20.18;100.00
26043;BME280;13818;52.156;5.382;2023-09-18T07:16:19;100067.19;;;20.19;100.00
26043;BME280;13818;52.156;5.382;2023-09-18T07:18:46;100064.59;;;20.27;100.00
26043;BME280;13818;52.156;5.382;2023-09-18T07:21:12;100068.53;;;20.33;100.00
26043;BME280;13818;52.156;5.382;2023-09-18T07:23:39;100077.47;;;20.33;100.00
26043;BME280;13818;52.156;5.382;2023-09-18T07:26:06;100074.47;;;20.37;100.00
26043;BME280;13818;52.156;5.382;2023-09-18T07:28:32;100066.53;;;20.35;100.00
26043;BME280;13818;52.156;5.382;2023-09-18T07:31:05;100050.84;;;20.39;100.00
26043;BME280;13818;52.156;5.382;2023-09-18T07:33:32;100060.72;;;20.48;100.00
26043;BME280;13818;52.156;5.382;2023-09-18T07:35:58;100058.41;;;20.53;100.00
26043;BME280;13818;52.156;5.382;2023-09-18T07:38:25;100055.16;;;20.49;100.00
26043;BME280;13818;52.156;5.382;2023-09-18T07:40:51;100045.56;;;20.55;100.00
26043;BME280;13818;52.156;5.382;2023-09-18T07:43:17;100054.75;;;20.62;100.00
26043;BME280;13818;52.156;5.382;2023-09-18T07:45:44;100062.56;;;20.65;100.00
26043;BME280;13818;52.156;5.382;2023-09-18T07:48:12;100057.34;;;20.82;100.00
26043;BME280;13818;52.156;5.382;2023-09-18T07:50:43;100055.94;;;20.78;100.00
26043;BME280;13818;52.156;5.382;2023-09-18T07:53:09;100058.72;;;20.86;100.00
26043;BME280;13818;52.156;5.382;2023-09-18T07:55:36;100062.78;;;20.90;100.00
26043;BME280;13818;52.156;5.382;2023-09-18T07:58:04;100060.63;;;20.94;100.00
26043;BME280;13818;52.156;5.382;2023-09-18T08:00:30;100050.03;;;21.01;100.00
26043;BME280;13818;52.156;5.382;2023-09-18T08:02:58;100058.91;;;21.11;100.00
26043;BME280;13818;52.156;5.382;2023-09-18T08:05:27;100072.50;;;21.19;100.00
26043;BME280;13818;52.156;5.382;2023-09-18T08:07:55;100075.75;;;21.23;100.00
26043;BME280;13818;52.156;5.382;2023-09-18T08:10:22;100075.44;;;21.26;100.00
26043;BME280;13818;52.156;5.382;2023-09-18T08:12:48;100067.69;;;21.31;100.00
26043;BME280;13818;52.156;5.382;2023-09-18T08:15:16;100069.03;;;21.35;100.00
26043;BME280;13818;52.156;5.382;2023-09-18T08:17:43;100072.75;;;21.34;100.00
26043;BME280;13818;52.156;5.382;2023-09-18T08:20:11;100076.38;;;21.43;100.00
26043;BME280;13818;52.156;5.382;2023-09-18T08:22:42;100073.75;;;21.33;100.00
26043;BME280;13818;52.156;5.382;2023-09-18T08:25:09;100076.09;;;21.28;100.00
26043;BME280;13818;52.156;5.382;2023-09-18T08:27:37;100083.94;;;21.31;100.00
26043;BME280;13818;52.156;5.382;2023-09-18T08:30:06;100087.84;;;21.37;100.00
26043;BME280;13818;52.156;5.382;2023-09-18T08:32:32;100095.78;;;21.30;100.00
26043;BME280;13818;52.156;5.382;2023-09-18T08:34:59;100085.50;;;21.42;100.00
26043;BME280;13818;52.156;5.382;2023-09-18T08:37:26;100090.81;;;21.52;100.00
26043;BME280;13818;52.156;5.382;2023-09-18T08:39:54;100091.09;;;21.58;100.00
26043;BME280;13818;52.156;5.382;2023-09-18T08:42:21;100099.44;;;21.73;100.00
26043;BME280;13818;52.156;5.382;2023-09-18T08:44:49;100095.19;;;21.71;100.00
26043;BME280;13818;52.156;5.382;2023-09-18T08:47:18;100105.09;;;21.80;100.00
26043;BME280;13818;52.156;5.382;2023-09-18T08:49:45;100106.66;;;21.91;100.00
26043;BME280;13818;52.156;5.382;2023-09-18T08:52:12;100108.72;;;21.97;100.00
26043;BME280;13818;52.156;5.382;2023-09-18T08:54:40;100104.50;;;22.03;100.00
26043;BME280;13818;52.156;5.382;2023-09-18T08:57:08;100104.50;;;22.03;100.00
26043;BME280;13818;52.156;5.382;2023-09-18T08:59:35;100108.59;;;22.07;100.00
26043;BME280;13818;52.156;5.382;2023-09-18T09:02:02;100113.72;;;22.18;100.00
26043;BME280;13818;52.156;5.382;2023-09-18T09:04:28;100114.41;;;22.29;100.00
26043;BME280;13818;52.156;5.382;2023-09-18T09:06:55;100119.50;;;22.23;100.00
26043;BME280;13818;52.156;5.382;2023-09-18T09:09:24;100127.47;;;22.25;100.00
26043;BME280;13818;52.156;5.382;2023-09-18T09:11:51;100131.88;;;22.18;100.00
26043;BME280;13818;52.156;5.382;2023-09-18T09:14:19;100138.00;;;22.28;100.00
26043;BME280;13818;52.156;5.382;2023-09-18T09:16:53;100133.09;;;22.32;100.00
26043;BME280;13818;52.156;5.382;2023-09-18T09:19:28;100118.16;;;22.27;100.00
26043;BME280;13818;52.156;5.382;2023-09-18T09:21:55;100121.63;;;22.46;100.00
26043;BME280;13818;52.156;5.382;2023-09-18T09:24:36;100131.16;;;22.58;100.00
26043;BME280;13818;52.156;5.382;2023-09-18T09:27:03;100126.44;;;22.69;100.00
26043;BME280;13818;52.156;5.382;2023-09-18T09:29:31;100129.16;;;22.85;100.00
26043;BME280;13818;52.156;5.382;2023-09-18T09:32:11;100125.44;;;22.95;100.00
26043;BME280;13818;52.156;5.382;2023-09-18T09:34:38;100143.41;;;22.96;100.00
26043;BME280;13818;52.156;5.382;2023-09-18T09:37:04;100131.53;;;22.97;100.00
26043;BME280;13818;52.156;5.382;2023-09-18T09:39:31;100134.25;;;22.97;100.00
26043;BME280;13818;52.156;5.382;2023-09-18T09:41:59;100144.47;;;22.95;100.00
26043;BME280;13818;52.156;5.382;2023-09-18T09:44:27;100150.22;;;22.83;100.00
26043;BME280;13818;52.156;5.382;2023-09-18T09:46:55;100155.66;;;22.83;100.00
26043;BME280;13818;52.156;5.382;2023-09-18T09:49:22;100152.25;;;22.81;100.00
26043;BME280;13818;52.156;5.382;2023-09-18T09:51:50;100161.56;;;22.70;100.00
26043;BME280;13818;52.156;5.382;2023-09-18T09:54:31;100155.56;;;22.42;100.00
26043;BME280;13818;52.156;5.382;2023-09-18T09:57:01;100155.63;;;22.24;100.00
26043;BME280;13818;52.156;5.382;2023-09-18T09:59:29;100156.66;;;22.31;100.00
26043;BME280;13818;52.156;5.382;2023-09-18T10:01:59;100166.28;;;22.52;100.00
26043;BME280;13818;52.156;5.382;2023-09-18T10:04:26;100160.69;;;22.53;100.00
26043;BME280;13818;52.156;5.382;2023-09-18T10:06:58;100159.69;;;22.63;100.00
26043;BME280;13818;52.156;5.382;2023-09-18T10:09:30;100160.69;;;22.62;100.00
26043;BME280;13818;52.156;5.382;2023-09-18T10:11:57;100168.69;;;22.63;100.00
26043;BME280;13818;52.156;5.382;2023-09-18T10:14:30;100165.09;;;22.54;100.00
26043;BME280;13818;52.156;5.382;2023-09-18T10:17:02;100163.94;;;22.57;100.00
26043;BME280;13818;52.156;5.382;2023-09-18T10:19:34;100156.63;;;22.57;100.00
26043;BME280;13818;52.156;5.382;2023-09-18T10:22:08;100150.03;;;22.77;100.00
26043;BME280;13818;52.156;5.382;2023-09-18T10:24:39;100154.94;;;22.73;100.00
26043;BME280;13818;52.156;5.382;2023-09-18T10:27:07;100163.09;;;22.89;100.00
26043;BME280;13818;52.156;5.382;2023-09-18T10:29:36;100153.09;;;22.98;100.00
26043;BME280;13818;52.156;5.382;2023-09-18T10:32:06;100149.72;;;22.96;100.00
26043;BME280;13818;52.156;5.382;2023-09-18T10:34:34;100174.84;;;22.98;100.00
26043;BME280;13818;52.156;5.382;2023-09-18T10:37:02;100170.41;;;22.89;100.00
26043;BME280;13818;52.156;5.382;2023-09-18T10:39:34;100179.09;;;22.92;100.00
26043;BME280;13818;52.156;5.382;2023-09-18T10:42:03;100185.88;;;22.88;100.00
26043;BME280;13818;52.156;5.382;2023-09-18T10:44:31;100171.59;;;22.78;100.00
26043;BME280;13818;52.156;5.382;2023-09-18T10:46:58;100175.50;;;22.84;100.00
26043;BME280;13818;52.156;5.382;2023-09-18T10:49:27;100170.94;;;23.01;100.00
26043;BME280;13818;52.156;5.382;2023-09-18T10:51:54;100174.84;;;22.98;100.00
26043;BME280;13818;52.156;5.382;2023-09-18T10:54:23;100169.25;;;23.08;100.00
26043;BME280;13818;52.156;5.382;2023-09-18T10:56:50;100175.50;;;22.92;100.00
26043;BME280;13818;52.156;5.382;2023-09-18T10:59:17;100173.97;;;22.89;100.00
26043;BME280;13818;52.156;5.382;2023-09-18T11:01:44;100166.88;;;22.97;100.00
26043;BME280;13818;52.156;5.382;2023-09-18T11:04:11;100164.84;;;22.99;100.00
26043;BME280;13818;52.156;5.382;2023-09-18T11:07:03;100169.06;;;23.10;100.00
26043;BME280;13818;52.156;5.382;2023-09-18T11:09:41;100172.66;;;23.10;100.00
26043;BME280;13818;52.156;5.382;2023-09-18T11:12:11;100164.88;;;23.15;100.00
26043;BME280;13818;52.156;5.382;2023-09-18T11:14:44;100160.13;;;23.26;100.00
26043;BME280;13818;52.156;5.382;2023-09-18T11:17:31;100156.72;;;23.40;100.00
26043;BME280;13818;52.156;5.382;2023-09-18T11:20:03;100160.97;;;23.34;100.00
26043;BME280;13818;52.156;5.382;2023-09-18T11:22:32;100163.00;;;23.32;100.00
26043;BME280;13818;52.156;5.382;2023-09-18T11:25:36;100157.22;;;23.35;100.00
26043;BME280;13818;52.156;5.382;2023-09-18T11:28:04;100150.09;;;23.34;100.00
26043;BME280;13818;52.156;5.382;2023-09-18T11:30:33;100153.16;;;23.31;100.00
26043;BME280;13818;52.156;5.382;2023-09-18T11:33:01;100140.75;;;23.29;100.00
26043;BME280;13818;52.156;5.382;2023-09-18T11:35:28;100150.44;;;23.23;100.00
26043;BME280;13818;52.156;5.382;2023-09-18T11:38:07;100142.59;;;23.28;100.00
26043;BME280;13818;52.156;5.382;2023-09-18T11:40:35;100141.56;;;23.37;100.00
26043;BME280;13818;52.156;5.382;2023-09-18T11:43:24;100140.72;;;23.53;100.00
26043;BME280;13818;52.156;5.382;2023-09-18T11:45:53;100143.09;;;23.56;100.00
26043;BME280;13818;52.156;5.382;2023-09-18T11:48:21;100149.72;;;23.46;100.00
26043;BME280;13818;52.156;5.382;2023-09-18T11:50:51;100149.41;;;23.32;100.00
26043;BME280;13818;52.156;5.382;2023-09-18T11:53:19;100146.00;;;23.38;100.00
26043;BME280;13818;52.156;5.382;2023-09-18T11:55:46;100150.94;;;23.27;100.00
26043;BME280;13818;52.156;5.382;2023-09-18T11:58:13;100152.47;;;23.29;100.00
26043;BME280;13818;52.156;5.382;2023-09-18T12:00:40;100137.16;;;23.28;100.00
26043;BME280;13818;52.156;5.382;2023-09-18T12:03:16;100158.09;;;23.28;100.00
26043;BME280;13818;52.156;5.382;2023-09-18T12:05:52;100151.13;;;23.25;100.00
26043;BME280;13818;52.156;5.382;2023-09-18T12:08:20;100145.19;;;23.21;100.00
26043;BME280;13818;52.156;5.382;2023-09-18T12:10:50;100163.13;;;23.14;100.00
26043;BME280;13818;52.156;5.382;2023-09-18T12:13:17;100153.28;;;22.97;100.00
26043;BME280;13818;52.156;5.382;2023-09-18T12:15:43;100150.25;;;23.00;100.00
26043;BME280;13818;52.156;5.382;2023-09-18T12:18:10;100149.38;;;22.99;100.00
26043;BME280;13818;52.156;5.382;2023-09-18T12:20:38;100146.66;;;22.99;100.00
26043;BME280;13818;52.156;5.382;2023-09-18T12:23:06;100138.34;;;23.09;100.00
26043;BME280;13818;52.156;5.382;2023-09-18T12:25:35;100135.81;;;23.24;100.00
26043;BME280;13818;52.156;5.382;2023-09-18T12:28:02;100128.84;;;23.30;100.00
26043;BME280;13818;52.156;5.382;2023-09-18T12:30:29;100137.53;;;23.25;100.00
26043;BME280;13818;52.156;5.382;2023-09-18T12:32:58;100137.19;;;23.20;100.00
26043;BME280;13818;52.156;5.382;2023-09-18T12:35:26;100125.47;;;23.28;100.00
26043;BME280;13818;52.156;5.382;2023-09-18T12:37:55;100139.69;;;23.13;100.00
26043;BME280;13818;52.156;5.382;2023-09-18T12:40:22;100136.13;;;23.13;100.00
26043;BME280;13818;52.156;5.382;2023-09-18T12:42:51;100143.75;;;23.01;100.00
26043;BME280;13818;52.156;5.382;2023-09-18T12:45:19;100134.78;;;23.08;100.00
26043;BME280;13818;52.156;5.382;2023-09-18T12:47:45;100136.66;;;23.24;100.00
26043;BME280;13818;52.156;5.382;2023-09-18T12:50:13;100129.19;;;23.10;100.00